Time;durP1;ratioP1;P1;durP2;ratioP2;P2;SDS_P1;SDS_P2;PMS_P1;PMS_P2;Temp;Humidity;BMP_temperature;BMP_pressure;BME280_temperature;BME280_humidity;BME280_pressure;Samples;Min_cycle;Max_cycle;Signal;HPM_P1;HPM_P2
2022/12/01 00:00:11;;;;;;;69.28;32.03;;;4.10;99.90;;;;;;5012489;28;20523;-69
2022/12/01 00:02:37;;;;;;;69.47;32.85;;;4.10;99.90;;;;;;5013165;28;20172;-69
2022/12/01 00:05:02;;;;;;;68.00;32.10;;;4.10;99.90;;;;;;5015483;28;20061;-69
2022/12/01 00:07:28;;;;;;;61.17;30.80;;;4.10;99.90;;;;;;5011478;28;20078;-70
2022/12/01 00:12:42;;;;;;;60.40;30.23;;;4.00;99.90;;;;;;5019607;28;20080;-69
2022/12/01 00:15:10;;;;;;;70.97;34.13;;;4.10;99.90;;;;;;5014888;28;20053;-69
2022/12/01 00:17:36;;;;;;;61.00;29.00;;;4.00;99.90;;;;;;5008988;28;20038;-69
2022/12/01 00:20:02;;;;;;;61.00;28.17;;;4.10;99.90;;;;;;5007544;28;20029;-70
2022/12/01 00:22:28;;;;;;;62.97;28.90;;;4.10;99.90;;;;;;5021607;28;20497;-69
2022/12/01 00:24:53;;;;;;;64.15;30.48;;;4.00;99.90;;;;;;5007957;28;20041;-69
2022/12/01 00:27:19;;;;;;;61.10;29.75;;;4.00;99.90;;;;;;5013775;28;20030;-69
2022/12/01 00:29:45;;;;;;;61.80;28.17;;;4.00;99.90;;;;;;5011485;28;20030;-70
2022/12/01 00:32:11;;;;;;;56.25;28.65;;;4.10;99.90;;;;;;5025236;28;20026;-69
2022/12/01 00:34:37;;;;;;;61.22;29.60;;;4.10;99.90;;;;;;5009956;28;20586;-71
2022/12/01 00:37:03;;;;;;;61.30;28.40;;;4.10;99.90;;;;;;5012113;28;20523;-70
2022/12/01 00:39:29;;;;;;;56.75;28.02;;;4.10;99.90;;;;;;5012568;28;20033;-69
2022/12/01 00:41:54;;;;;;;55.58;27.48;;;4.10;99.90;;;;;;5012291;28;20400;-71
2022/12/01 00:44:20;;;;;;;53.63;27.25;;;4.10;99.90;;;;;;5013020;28;20026;-71
2022/12/01 00:46:46;;;;;;;55.40;26.80;;;4.10;99.90;;;;;;5012575;28;20045;-72
2022/12/01 00:49:12;;;;;;;49.67;25.42;;;4.10;99.90;;;;;;5017121;28;20509;-71
2022/12/01 00:51:38;;;;;;;54.53;28.10;;;4.10;99.90;;;;;;5012454;28;20504;-71
2022/12/01 00:54:03;;;;;;;56.05;27.35;;;4.10;99.90;;;;;;5008626;28;20018;-71
2022/12/01 00:56:29;;;;;;;60.00;29.80;;;4.10;99.90;;;;;;5015568;28;20068;-70
2022/12/01 00:58:55;;;;;;;64.32;29.73;;;4.10;99.90;;;;;;5010825;28;20358;-70
2022/12/01 01:01:21;;;;;;;56.17;26.90;;;4.10;99.90;;;;;;5010348;28;20437;-70
2022/12/01 01:03:47;;;;;;;59.70;29.50;;;4.10;99.90;;;;;;5012980;28;20042;-70
2022/12/01 01:06:12;;;;;;;57.58;28.80;;;4.10;99.90;;;;;;5013825;28;20088;-70
2022/12/01 01:08:39;;;;;;;60.90;29.15;;;4.20;99.90;;;;;;5012090;28;20026;-70
2022/12/01 01:11:06;;;;;;;65.18;29.17;;;4.20;99.90;;;;;;5013719;28;20045;-70
2022/12/01 01:13:32;;;;;;;56.28;28.88;;;4.20;99.90;;;;;;5010108;28;20033;-70
2022/12/01 01:15:59;;;;;;;58.58;27.67;;;4.20;99.90;;;;;;5011828;28;20109;-69
2022/12/01 01:18:25;;;;;;;51.00;27.45;;;4.20;99.90;;;;;;5023852;28;20064;-71
2022/12/01 01:20:58;;;;;;;57.42;29.90;;;4.20;99.90;;;;;;5011416;28;20051;-70
2022/12/01 01:23:24;;;;;;;55.05;28.95;;;4.20;99.90;;;;;;5011488;28;20063;-70
2022/12/01 01:25:50;;;;;;;66.28;31.48;;;4.30;99.90;;;;;;5011843;28;20521;-70
2022/12/01 01:28:16;;;;;;;61.22;30.10;;;4.30;99.90;;;;;;5011949;28;20033;-70
2022/12/01 01:30:42;;;;;;;64.10;31.02;;;4.20;99.90;;;;;;5011165;28;20080;-70
2022/12/01 01:33:07;;;;;;;62.08;30.98;;;4.20;99.90;;;;;;5005492;28;20449;-71
2022/12/01 01:35:33;;;;;;;65.13;31.58;;;4.20;99.90;;;;;;5005888;28;20045;-71
2022/12/01 01:37:58;;;;;;;60.80;28.83;;;4.10;99.90;;;;;;5010381;28;20112;-70
2022/12/01 01:40:24;;;;;;;61.03;30.42;;;4.10;99.90;;;;;;5010495;28;20092;-71
2022/12/01 01:42:50;;;;;;;59.13;27.90;;;4.10;99.90;;;;;;5010478;28;20054;-70
2022/12/01 01:45:24;;;;;;;53.55;28.25;;;4.20;99.90;;;;;;5037453;28;20026;-70
2022/12/01 01:47:51;;;;;;;55.63;28.70;;;4.20;99.90;;;;;;5009692;28;20045;-70
2022/12/01 01:50:21;;;;;;;59.85;26.90;;;4.20;99.90;;;;;;5015754;28;20033;-70
2022/12/01 01:52:54;;;;;;;58.40;27.27;;;4.20;99.90;;;;;;5009743;28;20042;-70
2022/12/01 01:55:21;;;;;;;56.28;27.05;;;4.20;99.90;;;;;;5009987;28;20034;-70
2022/12/01 01:57:47;;;;;;;58.53;27.63;;;4.20;99.90;;;;;;5011134;28;20401;-69
2022/12/01 02:00:17;;;;;;;59.08;27.75;;;4.20;99.90;;;;;;5011776;28;20137;-69
2022/12/01 02:02:45;;;;;;;59.13;29.45;;;4.20;99.90;;;;;;5010799;28;20414;-70
2022/12/01 02:05:24;;;;;;;67.15;30.92;;;4.20;99.90;;;;;;5027645;28;20555;-70
2022/12/01 02:07:52;;;;;;;62.28;27.67;;;4.20;99.90;;;;;;5010407;28;20088;-70
2022/12/01 02:10:23;;;;;;;61.95;28.38;;;4.20;99.90;;;;;;5009083;28;20028;-70
2022/12/01 02:13:25;;;;;;;64.38;28.83;;;4.20;99.90;;;;;;5016172;28;20029;-71
2022/12/01 02:15:57;;;;;;;69.32;29.60;;;4.20;99.90;;;;;;5037376;28;20041;-70
2022/12/01 02:18:46;;;;;;;64.05;28.92;;;4.20;99.90;;;;;;5009817;28;20022;-70
2022/12/01 02:21:33;;;;;;;62.88;29.38;;;4.20;99.90;;;;;;5015928;28;20129;-71
2022/12/01 02:24:24;;;;;;;64.63;28.55;;;4.20;99.90;;;;;;5010479;28;20030;-70
2022/12/01 02:27:01;;;;;;;60.58;28.67;;;4.10;99.90;;;;;;5016960;28;20034;-70
2022/12/01 02:29:40;;;;;;;69.28;30.48;;;4.10;99.90;;;;;;5007004;28;20388;-70
2022/12/01 02:32:21;;;;;;;58.20;27.85;;;4.00;99.90;;;;;;5010131;28;20032;-70
2022/12/01 02:35:01;;;;;;;60.80;30.20;;;4.00;99.90;;;;;;4995763;28;20046;-71
2022/12/01 02:37:36;;;;;;;63.85;29.35;;;4.00;99.90;;;;;;4999136;28;20076;-70
2022/12/01 02:40:24;;;;;;;60.58;28.88;;;4.00;99.90;;;;;;5008558;28;20036;-70
2022/12/01 02:43:09;;;;;;;67.43;28.90;;;3.80;99.90;;;;;;5015221;28;20038;-70
2022/12/01 02:45:44;;;;;;;61.03;28.90;;;3.80;99.90;;;;;;5014598;28;20033;-69
2022/12/01 02:48:22;;;;;;;64.65;29.20;;;3.90;99.90;;;;;;5009288;28;20040;-70
2022/12/01 02:50:49;;;;;;;63.95;28.60;;;3.80;99.90;;;;;;5018051;28;20160;-69
2022/12/01 02:53:17;;;;;;;67.65;30.38;;;3.80;99.90;;;;;;5009966;28;20038;-70
2022/12/01 02:55:52;;;;;;;58.50;29.90;;;3.80;99.90;;;;;;5009333;28;20044;-69
2022/12/01 02:58:18;;;;;;;62.38;30.63;;;3.80;99.90;;;;;;5008842;28;20144;-70
2022/12/01 03:01:06;;;;;;;66.50;30.40;;;3.70;99.90;;;;;;5010361;28;20121;-69
2022/12/01 03:03:48;;;;;;;64.88;31.60;;;3.70;99.90;;;;;;5008399;28;20030;-69
2022/12/01 03:06:36;;;;;;;62.00;29.23;;;3.70;99.90;;;;;;5011177;28;20022;-70
2022/12/01 03:09:22;;;;;;;64.32;30.15;;;3.70;99.90;;;;;;5018197;28;20076;-70
2022/12/01 03:12:09;;;;;;;57.35;27.90;;;3.70;99.90;;;;;;4992242;28;20053;-70
2022/12/01 03:14:44;;;;;;;63.65;29.10;;;3.70;99.90;;;;;;5010070;28;20030;-70
2022/12/01 03:17:15;;;;;;;66.97;29.33;;;3.60;99.90;;;;;;5008214;28;20040;-69
2022/12/01 03:19:47;;;;;;;71.38;30.83;;;3.60;99.90;;;;;;4994901;28;20041;-69
2022/12/01 03:22:18;;;;;;;65.05;29.92;;;3.60;99.90;;;;;;5017589;28;20049;-69
2022/12/01 03:24:47;;;;;;;67.68;31.90;;;3.60;99.90;;;;;;5000499;28;20112;-69
2022/12/01 03:27:17;;;;;;;68.55;30.80;;;3.60;99.90;;;;;;5009529;28;20034;-69
2022/12/01 03:29:47;;;;;;;60.60;27.63;;;3.60;99.90;;;;;;5001659;28;20065;-69
2022/12/01 03:32:34;;;;;;;68.85;30.85;;;3.60;99.90;;;;;;5009520;28;20053;-70
2022/12/01 03:35:15;;;;;;;67.47;31.73;;;3.60;99.90;;;;;;5000695;28;20193;-69
2022/12/01 03:37:44;;;;;;;58.55;27.38;;;3.60;99.90;;;;;;5009723;28;20018;-69
2022/12/01 03:40:16;;;;;;;58.58;29.58;;;3.50;99.90;;;;;;5009124;28;20030;-70
2022/12/01 03:42:48;;;;;;;70.10;32.03;;;3.50;99.90;;;;;;5003351;28;20034;-70
2022/12/01 03:45:25;;;;;;;73.95;30.88;;;3.50;99.90;;;;;;5004750;28;20054;-70
2022/12/01 03:47:51;;;;;;;69.55;33.00;;;3.50;99.90;;;;;;5007389;28;20113;-70
2022/12/01 03:50:17;;;;;;;61.22;29.60;;;3.50;99.90;;;;;;5011810;28;20026;-69
2022/12/01 03:52:45;;;;;;;66.45;31.95;;;3.60;99.90;;;;;;5014926;28;20105;-70
2022/12/01 03:55:21;;;;;;;70.00;32.72;;;3.60;99.90;;;;;;5013349;28;20515;-70
2022/12/01 03:58:00;;;;;;;67.00;30.73;;;3.60;99.90;;;;;;5010683;28;20037;-71
2022/12/01 04:00:27;;;;;;;64.25;31.58;;;3.70;99.90;;;;;;5013518;28;20041;-71
2022/12/01 04:03:01;;;;;;;63.72;29.92;;;3.70;99.90;;;;;;5010665;28;20036;-69
2022/12/01 04:05:28;;;;;;;67.90;30.48;;;3.70;99.90;;;;;;5014232;28;20030;-67
2022/12/01 04:07:53;;;;;;;66.05;32.53;;;3.70;99.90;;;;;;5012697;28;20034;-69
2022/12/01 04:10:19;;;;;;;56.95;30.95;;;3.80;99.90;;;;;;5020818;28;20108;-69
2022/12/01 04:12:44;;;;;;;64.45;30.02;;;3.80;99.90;;;;;;5012828;28;20036;-69
2022/12/01 04:15:13;;;;;;;66.38;31.63;;;3.80;99.90;;;;;;5009621;28;20037;-69
2022/12/01 04:17:42;;;;;;;68.05;31.88;;;3.80;99.90;;;;;;5012122;28;20101;-69
2022/12/01 04:20:09;;;;;;;71.97;32.65;;;3.80;99.90;;;;;;5014438;28;20112;-70
2022/12/01 04:22:35;;;;;;;66.32;30.50;;;3.90;99.90;;;;;;5012617;28;20099;-70
2022/12/01 04:25:01;;;;;;;65.07;31.13;;;3.80;99.90;;;;;;5013726;28;20587;-69
2022/12/01 04:27:27;;;;;;;64.18;29.42;;;3.90;99.90;;;;;;5013646;28;20057;-69
2022/12/01 04:29:52;;;;;;;69.07;32.40;;;3.90;99.90;;;;;;5011406;28;20026;-69
2022/12/01 04:32:18;;;;;;;70.47;34.40;;;3.90;99.90;;;;;;5012981;28;20109;-69
2022/12/01 04:34:44;;;;;;;64.03;31.95;;;3.90;99.90;;;;;;5011084;28;20057;-70
2022/12/01 04:37:10;;;;;;;67.55;32.72;;;3.90;99.90;;;;;;5012367;28;20030;-70
2022/12/01 04:39:37;;;;;;;66.72;32.55;;;3.90;99.90;;;;;;5006620;28;20308;-69
2022/12/01 04:42:03;;;;;;;62.92;32.47;;;3.90;99.90;;;;;;5006538;28;20029;-70
2022/12/01 04:44:29;;;;;;;67.65;32.65;;;4.00;99.90;;;;;;5012892;28;20033;-70
2022/12/01 04:46:55;;;;;;;62.30;31.35;;;3.90;99.90;;;;;;5013873;28;20022;-69
2022/12/01 04:49:21;;;;;;;69.22;32.28;;;3.90;99.90;;;;;;5012734;28;20422;-69
2022/12/01 04:51:47;;;;;;;64.72;32.20;;;3.90;99.90;;;;;;5012902;28;20084;-70
2022/12/01 04:54:14;;;;;;;67.70;34.65;;;3.90;99.90;;;;;;5011460;28;20050;-69
2022/12/01 04:56:40;;;;;;;66.15;35.15;;;3.90;99.90;;;;;;5013005;28;20363;-70
2022/12/01 04:59:06;;;;;;;79.55;35.92;;;3.80;99.90;;;;;;5011822;28;20105;-70
2022/12/01 05:01:32;;;;;;;80.40;34.35;;;3.70;99.90;;;;;;5011221;28;20137;-69
2022/12/01 05:03:57;;;;;;;77.22;36.80;;;3.60;99.90;;;;;;5013257;28;20045;-70
2022/12/01 05:06:25;;;;;;;73.80;33.08;;;3.50;99.90;;;;;;5010433;28;20026;-69
2022/12/01 05:08:55;;;;;;;72.70;33.92;;;3.50;99.90;;;;;;5012638;28;20053;-68
2022/12/01 05:11:21;;;;;;;80.95;35.47;;;3.50;99.90;;;;;;5043544;28;20018;-69
2022/12/01 05:13:48;;;;;;;70.57;32.90;;;3.50;99.90;;;;;;5011297;28;20117;-69
2022/12/01 05:16:20;;;;;;;78.88;35.17;;;3.50;99.90;;;;;;5012330;28;20021;-69
2022/12/01 05:18:50;;;;;;;73.07;34.13;;;3.40;99.90;;;;;;5008976;28;20041;-70
2022/12/01 05:21:16;;;;;;;82.53;36.45;;;3.40;99.90;;;;;;5011074;28;20041;-69
2022/12/01 05:23:44;;;;;;;77.70;37.28;;;3.30;99.90;;;;;;5009657;28;20056;-69
2022/12/01 05:26:10;;;;;;;77.53;35.42;;;3.30;99.90;;;;;;5012193;28;20384;-69
2022/12/01 05:28:36;;;;;;;76.80;36.03;;;3.20;99.90;;;;;;5011716;28;20044;-70
2022/12/01 05:31:02;;;;;;;73.10;36.97;;;3.10;99.90;;;;;;5012539;28;20021;-70
2022/12/01 05:33:28;;;;;;;66.38;33.17;;;3.20;99.90;;;;;;5027625;28;20531;-70
2022/12/01 05:35:54;;;;;;;71.80;34.22;;;3.10;99.90;;;;;;5010718;28;20073;-70
2022/12/01 05:38:20;;;;;;;68.75;32.40;;;3.10;99.90;;;;;;5011813;28;20026;-69
2022/12/01 05:40:53;;;;;;;69.07;33.13;;;3.10;99.90;;;;;;5010502;28;20030;-69
2022/12/01 05:43:22;;;;;;;67.28;32.53;;;3.10;99.90;;;;;;5009713;28;20034;-70
2022/12/01 05:45:48;;;;;;;68.80;34.78;;;3.10;99.90;;;;;;5012427;28;20021;-70
2022/12/01 05:48:14;;;;;;;66.75;33.33;;;3.20;99.90;;;;;;5010859;28;20039;-69
2022/12/01 05:50:40;;;;;;;69.90;34.58;;;3.20;99.90;;;;;;5009799;28;20025;-70
2022/12/01 05:53:06;;;;;;;67.07;34.88;;;3.20;99.90;;;;;;5011681;28;20398;-70
2022/12/01 05:55:33;;;;;;;73.53;35.67;;;3.30;99.90;;;;;;5010624;28;20401;-69
2022/12/01 05:57:59;;;;;;;59.70;30.83;;;3.30;99.90;;;;;;5011576;28;20026;-70
2022/12/01 06:00:24;;;;;;;62.10;31.45;;;3.30;99.90;;;;;;5011143;28;20034;-69
2022/12/01 06:02:50;;;;;;;69.40;35.78;;;3.40;99.90;;;;;;5012807;28;20054;-70
2022/12/01 06:05:16;;;;;;;70.47;35.33;;;3.30;99.90;;;;;;5011034;28;20474;-69
2022/12/01 06:07:41;;;;;;;64.53;30.63;;;3.40;99.90;;;;;;5012718;28;20026;-69
2022/12/01 06:10:08;;;;;;;72.63;35.42;;;3.40;99.90;;;;;;5009848;28;20481;-70
2022/12/01 06:12:34;;;;;;;74.45;34.08;;;3.40;99.90;;;;;;5009787;28;20057;-69
2022/12/01 06:15:00;;;;;;;67.97;34.10;;;3.40;99.90;;;;;;5010587;28;20057;-69
2022/12/01 06:17:25;;;;;;;70.18;34.70;;;3.40;99.90;;;;;;5012122;28;20087;-69
2022/12/01 06:19:51;;;;;;;70.57;36.08;;;3.40;99.90;;;;;;5011040;28;20105;-69
2022/12/01 06:22:17;;;;;;;74.55;35.53;;;3.40;99.90;;;;;;5012552;28;20535;-69
2022/12/01 06:24:42;;;;;;;69.43;35.25;;;3.40;99.90;;;;;;5008682;28;20022;-69
2022/12/01 06:27:08;;;;;;;69.40;35.03;;;3.40;99.90;;;;;;5011189;28;20447;-69
2022/12/01 06:29:33;;;;;;;80.80;34.53;;;3.40;99.90;;;;;;5004776;28;20026;-69
2022/12/01 06:31:59;;;;;;;78.35;36.35;;;3.40;99.90;;;;;;5001939;28;20042;-69
2022/12/01 06:34:25;;;;;;;71.25;35.85;;;3.30;99.90;;;;;;5010258;28;20037;-69
2022/12/01 06:36:50;;;;;;;75.65;35.70;;;3.20;99.90;;;;;;5011216;28;20061;-69
2022/12/01 06:39:16;;;;;;;77.22;34.70;;;3.20;99.90;;;;;;5009066;28;20041;-68
2022/12/01 06:41:42;;;;;;;74.10;36.22;;;3.10;99.90;;;;;;5010076;28;20139;-67
2022/12/01 06:44:08;;;;;;;70.15;35.90;;;3.10;99.90;;;;;;5009027;28;20021;-67
2022/12/01 06:46:34;;;;;;;70.43;35.95;;;3.10;99.90;;;;;;5007977;28;20087;-67
2022/12/01 06:49:00;;;;;;;77.95;37.10;;;3.20;99.90;;;;;;4999596;28;20025;-66
2022/12/01 06:51:25;;;;;;;70.28;36.42;;;3.20;99.90;;;;;;5011595;28;20482;-69
2022/12/01 06:53:55;;;;;;;73.55;36.67;;;3.20;99.90;;;;;;5002857;28;20517;-67
2022/12/01 06:56:21;;;;;;;77.47;38.38;;;3.20;99.90;;;;;;5009385;28;20026;-66
2022/12/01 06:58:49;;;;;;;74.15;38.60;;;3.20;99.90;;;;;;5009241;28;20033;-67
2022/12/01 07:01:15;;;;;;;79.53;37.13;;;3.20;99.90;;;;;;5014048;28;20103;-67
2022/12/01 07:03:41;;;;;;;80.13;38.58;;;3.20;99.90;;;;;;5010638;28;20073;-67
2022/12/01 07:06:08;;;;;;;87.72;41.65;;;3.20;99.90;;;;;;5010992;28;20076;-67
2022/12/01 07:08:34;;;;;;;80.70;38.13;;;3.20;99.90;;;;;;5006050;28;20101;-71
2022/12/01 07:11:11;;;;;;;75.07;37.72;;;3.20;99.90;;;;;;4996247;28;20421;-67
2022/12/01 07:13:38;;;;;;;84.70;40.35;;;3.20;99.90;;;;;;5005065;28;20543;-67
2022/12/01 07:16:05;;;;;;;85.25;41.20;;;3.20;99.90;;;;;;5010694;28;20497;-68
2022/12/01 07:18:32;;;;;;;95.82;44.72;;;3.20;99.90;;;;;;5008566;28;20112;-66
2022/12/01 07:21:03;;;;;;;94.05;42.17;;;3.10;99.90;;;;;;5004110;28;20461;-68
2022/12/01 07:23:29;;;;;;;88.90;43.00;;;3.10;99.90;;;;;;5012857;28;20042;-68
2022/12/01 07:26:06;;;;;;;85.50;40.38;;;3.10;99.90;;;;;;5022089;28;20068;-68
2022/12/01 07:28:32;;;;;;;88.35;44.75;;;3.10;99.90;;;;;;5012200;28;20036;-68
2022/12/01 07:31:09;;;;;;;97.00;43.10;;;3.10;99.90;;;;;;5014573;28;20041;-68
2022/12/01 07:33:35;;;;;;;101.65;42.45;;;3.10;99.90;;;;;;5013481;28;20088;-70
2022/12/01 07:36:03;;;;;;;96.65;44.03;;;3.10;99.90;;;;;;5009253;28;20050;-69
2022/12/01 07:38:29;;;;;;;93.65;43.40;;;3.20;99.90;;;;;;5014271;28;20587;-70
2022/12/01 07:41:05;;;;;;;96.13;43.42;;;3.20;99.90;;;;;;5012106;28;20033;-69
2022/12/01 07:43:31;;;;;;;99.85;45.13;;;3.20;99.90;;;;;;5005747;28;20034;-70
2022/12/01 07:46:14;;;;;;;93.07;41.10;;;3.20;99.90;;;;;;5010219;28;20061;-70
2022/12/01 07:48:40;;;;;;;99.40;45.35;;;3.30;99.90;;;;;;5002864;28;20489;-71
2022/12/01 07:51:08;;;;;;;98.70;45.55;;;3.30;99.90;;;;;;5013424;28;20037;-70
2022/12/01 07:53:35;;;;;;;95.93;43.00;;;3.30;99.90;;;;;;5012113;28;20056;-70
2022/12/01 07:56:00;;;;;;;93.93;44.38;;;3.40;99.90;;;;;;5013874;28;20042;-70
2022/12/01 07:58:26;;;;;;;96.72;44.30;;;3.40;99.90;;;;;;5011872;28;20038;-69
2022/12/01 08:00:53;;;;;;;96.72;44.65;;;3.50;99.90;;;;;;5005677;28;20516;-70
2022/12/01 08:03:19;;;;;;;98.53;44.33;;;3.50;99.90;;;;;;5010148;28;20100;-70
2022/12/01 08:05:45;;;;;;;102.65;45.65;;;3.50;99.90;;;;;;5011901;28;20030;-69
2022/12/01 08:08:10;;;;;;;94.93;46.70;;;3.50;99.90;;;;;;5013465;28;20056;-70
2022/12/01 08:10:36;;;;;;;102.25;45.63;;;3.50;99.90;;;;;;5008490;28;20305;-70
2022/12/01 08:13:02;;;;;;;105.15;44.92;;;3.40;99.90;;;;;;5010248;28;20069;-70
2022/12/01 08:15:28;;;;;;;101.45;49.72;;;3.50;99.90;;;;;;5011024;28;20030;-70
2022/12/01 08:17:54;;;;;;;104.30;45.45;;;3.40;99.90;;;;;;5008676;28;20527;-69
2022/12/01 08:20:20;;;;;;;103.00;49.17;;;3.50;99.90;;;;;;5009959;28;20026;-69
2022/12/01 08:22:46;;;;;;;100.88;46.53;;;3.50;99.90;;;;;;5012235;28;20493;-70
2022/12/01 08:25:11;;;;;;;103.30;50.55;;;3.50;99.90;;;;;;5012347;28;20132;-69
2022/12/01 08:27:37;;;;;;;113.15;50.15;;;3.50;99.90;;;;;;5012008;28;20424;-69
2022/12/01 08:30:03;;;;;;;106.28;50.78;;;3.60;99.90;;;;;;5011980;28;20032;-70
2022/12/01 08:32:29;;;;;;;108.70;49.35;;;3.60;99.90;;;;;;5007126;28;20033;-69
2022/12/01 08:34:55;;;;;;;98.88;46.67;;;3.60;99.90;;;;;;5024258;28;20022;-70
2022/12/01 08:37:21;;;;;;;110.88;48.63;;;3.60;99.90;;;;;;5009791;28;20030;-70
2022/12/01 08:39:47;;;;;;;119.20;57.20;;;3.70;99.90;;;;;;5010390;28;20038;-70
2022/12/01 08:42:12;;;;;;;126.22;58.67;;;3.60;99.90;;;;;;5012091;28;20397;-70
2022/12/01 08:44:38;;;;;;;121.05;56.28;;;3.70;99.90;;;;;;5010153;28;20026;-70
2022/12/01 08:47:03;;;;;;;103.72;50.20;;;3.70;99.90;;;;;;5012987;28;20112;-69
2022/12/01 08:49:29;;;;;;;104.90;49.38;;;3.70;99.90;;;;;;5010251;28;20045;-69
2022/12/01 08:51:55;;;;;;;113.50;49.05;;;3.70;99.90;;;;;;5006190;28;20076;-70
2022/12/01 08:54:21;;;;;;;99.57;48.72;;;3.70;99.90;;;;;;5011753;28;20026;-70
2022/12/01 08:56:46;;;;;;;109.18;48.38;;;3.80;99.90;;;;;;5010611;28;20030;-70
2022/12/01 08:59:15;;;;;;;96.07;45.33;;;3.70;99.70;;;;;;5013025;28;20053;-70
2022/12/01 09:01:53;;;;;;;98.70;45.15;;;3.70;99.80;;;;;;5011601;28;20045;-70
2022/12/01 09:04:24;;;;;;;97.03;45.22;;;3.70;99.80;;;;;;5008241;28;20038;-70
2022/12/01 09:06:51;;;;;;;101.22;46.13;;;3.70;99.80;;;;;;5006743;28;20117;-69
2022/12/01 09:09:23;;;;;;;94.03;44.95;;;3.70;99.70;;;;;;5007334;28;20053;-70
2022/12/01 09:11:51;;;;;;;95.15;45.55;;;3.80;99.80;;;;;;5011564;28;20045;-69
2022/12/01 09:14:18;;;;;;;95.20;45.83;;;3.80;99.70;;;;;;5010955;28;20032;-70
2022/12/01 09:16:46;;;;;;;102.10;47.67;;;3.70;99.70;;;;;;5009288;28;20400;-70
2022/12/01 09:19:12;;;;;;;95.15;44.58;;;3.70;99.70;;;;;;5008021;28;20100;-70
2022/12/01 09:21:38;;;;;;;101.55;47.28;;;3.80;99.80;;;;;;5009955;28;20034;-71
2022/12/01 09:24:06;;;;;;;98.75;47.90;;;3.80;99.70;;;;;;5010443;28;20036;-70
2022/12/01 09:26:32;;;;;;;94.97;47.42;;;3.80;99.60;;;;;;5011114;28;20072;-70
2022/12/01 09:29:05;;;;;;;92.07;46.17;;;3.80;99.70;;;;;;5010846;28;20037;-70
2022/12/01 09:31:31;;;;;;;96.60;45.72;;;3.80;99.70;;;;;;5009242;28;20042;-70
2022/12/01 09:34:09;;;;;;;96.05;46.85;;;3.80;99.60;;;;;;5012986;28;20109;-68
2022/12/01 09:36:36;;;;;;;96.40;47.50;;;3.80;99.60;;;;;;5010746;28;20108;-68
2022/12/01 09:39:02;;;;;;;93.35;44.40;;;3.70;99.50;;;;;;5012888;28;20113;-69
2022/12/01 09:41:46;;;;;;;94.45;45.55;;;3.70;99.50;;;;;;5010154;28;20200;-69
2022/12/01 09:44:41;;;;;;;104.60;46.80;;;3.70;99.60;;;;;;5000063;28;20041;-68
2022/12/01 09:47:12;;;;;;;113.68;46.58;;;3.70;99.60;;;;;;5008227;28;20034;-69
2022/12/01 09:49:54;;;;;;;96.78;44.70;;;3.70;99.40;;;;;;5010457;28;20121;-68
2022/12/01 09:52:21;;;;;;;94.93;43.55;;;3.70;99.50;;;;;;5010143;28;20037;-69
2022/12/01 09:54:48;;;;;;;100.53;49.42;;;3.70;99.60;;;;;;5011244;28;20045;-69
2022/12/01 09:57:21;;;;;;;97.05;48.55;;;3.80;99.60;;;;;;5008324;28;20056;-69
2022/12/01 09:59:47;;;;;;;90.28;45.92;;;3.80;99.50;;;;;;5009045;28;20049;-70
2022/12/01 10:02:31;;;;;;;90.32;42.65;;;3.80;99.50;;;;;;5025732;28;20041;-69
2022/12/01 10:05:00;;;;;;;92.60;45.55;;;3.80;99.50;;;;;;5009856;28;20057;-69
2022/12/01 10:07:55;;;;;;;96.75;44.58;;;3.80;99.50;;;;;;5009643;28;20026;-69
2022/12/01 10:10:43;;;;;;;89.07;42.30;;;3.90;99.50;;;;;;5008863;28;20046;-69
2022/12/01 10:13:27;;;;;;;85.72;41.38;;;3.80;99.30;;;;;;5009685;28;20292;-68
2022/12/01 10:15:53;;;;;;;87.47;44.50;;;3.90;99.40;;;;;;5003036;28;20038;-68
2022/12/01 10:18:33;;;;;;;82.20;40.95;;;3.90;99.40;;;;;;5010045;28;20476;-69
2022/12/01 10:21:23;;;;;;;85.10;43.00;;;4.00;99.40;;;;;;5011747;28;20042;-69
2022/12/01 10:24:12;;;;;;;79.13;39.53;;;3.90;99.30;;;;;;5029400;28;20044;-69
2022/12/01 10:26:56;;;;;;;75.55;38.90;;;4.00;99.30;;;;;;5018875;28;20029;-69
2022/12/01 10:29:26;;;;;;;80.28;38.85;;;4.00;99.30;;;;;;5009829;28;20080;-69
2022/12/01 10:31:58;;;;;;;77.70;37.90;;;4.00;99.40;;;;;;5008346;28;20061;-69
2022/12/01 10:34:31;;;;;;;76.78;37.67;;;4.00;99.30;;;;;;5007686;28;20037;-69
2022/12/01 10:36:57;;;;;;;70.90;37.65;;;4.10;99.30;;;;;;5002953;28;20033;-69
2022/12/01 10:39:41;;;;;;;78.82;39.17;;;4.10;99.30;;;;;;5009509;28;20459;-67
2022/12/01 10:42:16;;;;;;;77.03;39.10;;;4.10;99.10;;;;;;5007910;28;20045;-68
2022/12/01 10:44:43;;;;;;;87.15;39.67;;;4.20;99.20;;;;;;5011591;28;20089;-67
2022/12/01 10:47:20;;;;;;;77.32;37.97;;;4.20;99.00;;;;;;5009573;28;20034;-68
2022/12/01 10:49:46;;;;;;;80.70;39.15;;;4.10;98.90;;;;;;5007436;28;20030;-69
2022/12/01 10:52:35;;;;;;;75.45;37.38;;;4.00;98.90;;;;;;5007048;28;20030;-68
2022/12/01 10:55:21;;;;;;;74.90;37.83;;;4.00;99.00;;;;;;5002981;28;20050;-68
2022/12/01 10:57:48;;;;;;;76.35;38.08;;;4.10;99.00;;;;;;5005141;28;20045;-68
2022/12/01 11:00:25;;;;;;;70.00;38.85;;;4.10;99.00;;;;;;5014036;28;20065;-69
2022/12/01 11:02:51;;;;;;;69.35;36.60;;;4.10;99.10;;;;;;5009610;28;20061;-69
2022/12/01 11:05:27;;;;;;;74.68;39.70;;;4.20;99.10;;;;;;5005373;28;20490;-69
2022/12/01 11:07:54;;;;;;;78.68;40.03;;;4.20;99.00;;;;;;5006069;28;20026;-68
2022/12/01 11:10:26;;;;;;;75.57;38.70;;;4.20;98.70;;;;;;5010949;28;20030;-69
2022/12/01 11:13:01;;;;;;;72.43;37.08;;;4.10;98.80;;;;;;5007612;28;20026;-69
2022/12/01 11:15:31;;;;;;;69.28;37.85;;;4.20;98.90;;;;;;5009919;28;20041;-69
2022/12/01 11:17:59;;;;;;;72.15;39.35;;;4.10;98.80;;;;;;5009280;28;20034;-69
2022/12/01 11:20:39;;;;;;;71.43;36.78;;;4.20;98.80;;;;;;5009029;28;20037;-69
2022/12/01 11:23:19;;;;;;;64.80;35.60;;;4.10;98.80;;;;;;5009715;28;20044;-69
2022/12/01 11:26:19;;;;;;;71.65;35.78;;;4.10;98.80;;;;;;5010731;28;20033;-68
2022/12/01 11:28:53;;;;;;;65.65;35.53;;;4.10;98.70;;;;;;5004421;28;20104;-69
2022/12/01 11:31:20;;;;;;;65.18;36.08;;;4.20;98.70;;;;;;5023994;28;20030;-69
2022/12/01 11:33:52;;;;;;;63.00;35.33;;;4.10;98.80;;;;;;5013293;28;20329;-68
2022/12/01 11:36:28;;;;;;;68.28;36.42;;;4.20;98.80;;;;;;5009228;28;20060;-69
2022/12/01 11:38:56;;;;;;;68.63;33.97;;;4.20;98.70;;;;;;5006773;28;20457;-69
2022/12/01 11:41:36;;;;;;;71.90;35.72;;;4.20;98.70;;;;;;5004142;28;20053;-67
2022/12/01 11:44:05;;;;;;;67.95;36.95;;;4.20;98.60;;;;;;5008156;28;20500;-67
2022/12/01 11:46:37;;;;;;;67.95;35.47;;;4.20;98.60;;;;;;5004401;28;20029;-67
2022/12/01 11:49:03;;;;;;;64.75;37.97;;;4.20;98.70;;;;;;5009195;28;20401;-68
2022/12/01 11:51:31;;;;;;;65.70;35.88;;;4.20;98.70;;;;;;5008172;28;20022;-70
2022/12/01 11:54:13;;;;;;;67.43;35.60;;;4.20;98.70;;;;;;5005496;28;20034;-68
2022/12/01 11:56:39;;;;;;;64.05;33.67;;;4.20;98.60;;;;;;5009906;28;20385;-70
2022/12/01 11:59:17;;;;;;;66.00;35.63;;;4.20;98.60;;;;;;5008933;28;20367;-68
2022/12/01 12:02:00;;;;;;;61.30;33.92;;;4.30;98.70;;;;;;5007376;28;20396;-67
2022/12/01 12:04:35;;;;;;;60.13;31.15;;;4.30;98.60;;;;;;5005848;28;20619;-68
2022/12/01 12:07:34;;;;;;;62.15;32.08;;;4.30;98.60;;;;;;5008304;28;20045;-68
2022/12/01 12:10:18;;;;;;;57.15;31.10;;;4.30;98.60;;;;;;5015878;28;20537;-68
2022/12/01 12:13:10;;;;;;;60.70;32.88;;;4.30;98.60;;;;;;5009745;28;20034;-68
2022/12/01 12:15:45;;;;;;;61.35;34.22;;;4.40;98.60;;;;;;5010155;28;20036;-68
2022/12/01 12:18:36;;;;;;;67.07;34.42;;;4.40;98.60;;;;;;5012001;28;20038;-67
2022/12/01 12:21:37;;;;;;;58.65;33.60;;;4.40;98.60;;;;;;5007977;28;20512;-67
2022/12/01 12:24:12;;;;;;;63.28;33.85;;;4.40;98.60;;;;;;5008068;28;20155;-68
2022/12/01 12:27:01;;;;;;;57.53;31.88;;;4.40;98.50;;;;;;5010892;28;20064;-68
2022/12/01 12:29:39;;;;;;;60.85;33.15;;;4.40;98.40;;;;;;5007160;28;20464;-68
2022/12/01 12:32:13;;;;;;;57.05;32.05;;;4.40;98.40;;;;;;5009476;28;20494;-68
2022/12/01 12:35:04;;;;;;;55.72;32.78;;;4.40;98.50;;;;;;5004830;28;20073;-68
2022/12/01 12:37:42;;;;;;;52.88;30.15;;;4.40;98.40;;;;;;5008014;28;20029;-68
2022/12/01 12:40:40;;;;;;;54.05;31.88;;;4.40;98.40;;;;;;5010197;28;20036;-68
2022/12/01 12:43:22;;;;;;;50.63;28.67;;;4.30;98.30;;;;;;5010332;28;20045;-67
2022/12/01 12:45:57;;;;;;;52.88;29.10;;;4.30;98.60;;;;;;4994436;28;20029;-68
2022/12/01 12:48:46;;;;;;;55.78;30.73;;;4.30;98.40;;;;;;5008066;28;20056;-67
2022/12/01 12:51:26;;;;;;;56.72;30.10;;;4.20;98.30;;;;;;5005938;28;20037;-69
2022/12/01 12:54:16;;;;;;;55.67;28.95;;;4.20;98.30;;;;;;5013258;28;20029;-68
2022/12/01 12:56:46;;;;;;;54.10;28.98;;;4.20;98.30;;;;;;5001845;28;20402;-68